sensor_id;sensor_type;location;lat;lon;timestamp;pressure;altitude;pressure_sealevel;temperature;humidity
55418;BME280;41287;47.554;7.844;2023-03-03T00:01:19;98140.97;;;15.93;57.90
55418;BME280;41287;47.554;7.844;2023-03-03T00:03:44;98138.25;;;15.93;57.88
55418;BME280;41287;47.554;7.844;2023-03-03T00:06:13;98146.34;;;15.93;57.79
55418;BME280;41287;47.554;7.844;2023-03-03T00:08:41;98140.97;;;15.93;57.72
55418;BME280;41287;47.554;7.844;2023-03-03T00:11:07;98145.25;;;15.94;57.91
55418;BME280;41287;47.554;7.844;2023-03-03T00:13:42;98145.56;;;15.92;57.79
55418;BME280;41287;47.554;7.844;2023-03-03T00:16:20;98148.75;;;15.94;57.84
55418;BME280;41287;47.554;7.844;2023-03-03T00:18:46;98147.16;;;15.93;57.91
55418;BME280;41287;47.554;7.844;2023-03-03T00:21:32;98144.75;;;15.92;57.92
55418;BME280;41287;47.554;7.844;2023-03-03T00:26:47;98146.34;;;15.93;57.77
55418;BME280;41287;47.554;7.844;2023-03-03T00:29:52;98149.38;;;15.91;57.91
55418;BME280;41287;47.554;7.844;2023-03-03T00:32:24;98155.25;;;15.93;57.84
55418;BME280;41287;47.554;7.844;2023-03-03T00:34:53;98150.97;;;15.92;57.97
55418;BME280;41287;47.554;7.844;2023-03-03T00:37:29;98151.75;;;15.93;57.99
55418;BME280;41287;47.554;7.844;2023-03-03T00:42:39;98151.75;;;15.93;57.95
55418;BME280;41287;47.554;7.844;2023-03-03T00:45:28;98157.16;;;15.93;57.82
55418;BME280;41287;47.554;7.844;2023-03-03T00:47:53;98160.66;;;15.93;58.03
55418;BME280;41287;47.554;7.844;2023-03-03T00:50:29;98149.38;;;15.91;57.99
55418;BME280;41287;47.554;7.844;2023-03-03T00:53:01;98157.16;;;15.93;57.97
55418;BME280;41287;47.554;7.844;2023-03-03T00:55:27;98157.16;;;15.93;57.88
55418;BME280;41287;47.554;7.844;2023-03-03T00:57:52;98155.25;;;15.93;57.82
55418;BME280;41287;47.554;7.844;2023-03-03T01:00:18;98149.88;;;15.93;57.88
55418;BME280;41287;47.554;7.844;2023-03-03T01:02:43;98152.56;;;15.93;57.97
55418;BME280;41287;47.554;7.844;2023-03-03T01:05:12;98154.47;;;15.93;57.88
55418;BME280;41287;47.554;7.844;2023-03-03T01:07:38;98146.34;;;15.93;57.88
55418;BME280;41287;47.554;7.844;2023-03-03T01:10:03;98143.66;;;15.93;57.85
55418;BME280;41287;47.554;7.844;2023-03-03T01:12:29;98146.84;;;15.95;57.96
55418;BME280;41287;47.554;7.844;2023-03-03T01:14:54;98147.97;;;15.94;58.02
55418;BME280;41287;47.554;7.844;2023-03-03T01:17:20;98146.34;;;15.93;57.99
55418;BME280;41287;47.554;7.844;2023-03-03T01:19:45;98142.84;;;15.92;57.98
55418;BME280;41287;47.554;7.844;2023-03-03T01:22:11;98149.06;;;15.93;58.21
55418;BME280;41287;47.554;7.844;2023-03-03T01:24:36;98146.34;;;15.93;58.09
55418;BME280;41287;47.554;7.844;2023-03-03T01:27:03;98153.38;;;15.94;57.95
55418;BME280;41287;47.554;7.844;2023-03-03T01:29:29;98141.75;;;15.93;57.94
55418;BME280;41287;47.554;7.844;2023-03-03T01:31:54;98147.97;;;15.94;57.95
55418;BME280;41287;47.554;7.844;2023-03-03T01:34:20;98149.88;;;15.93;57.90
55418;BME280;41287;47.554;7.844;2023-03-03T01:36:48;98151.75;;;15.93;57.87
55418;BME280;41287;47.554;7.844;2023-03-03T01:39:13;98144.47;;;15.93;57.99
55418;BME280;41287;47.554;7.844;2023-03-03T01:41:38;98150.97;;;15.92;57.98
55418;BME280;41287;47.554;7.844;2023-03-03T01:44:08;98146.34;;;15.93;57.97
55418;BME280;41287;47.554;7.844;2023-03-03T01:46:47;98156.38;;;15.92;57.88
55418;BME280;41287;47.554;7.844;2023-03-03T01:49:22;98149.06;;;15.93;57.82
55418;BME280;41287;47.554;7.844;2023-03-03T01:51:56;98154.97;;;15.95;57.97
55418;BME280;41287;47.554;7.844;2023-03-03T01:54:43;98150.16;;;15.92;57.93
55418;BME280;41287;47.554;7.844;2023-03-03T01:57:15;98149.06;;;15.93;57.99
55418;BME280;41287;47.554;7.844;2023-03-03T01:59:45;98147.16;;;15.93;58.02
55418;BME280;41287;47.554;7.844;2023-03-03T02:02:14;98139.06;;;15.93;57.89
55418;BME280;41287;47.554;7.844;2023-03-03T02:04:39;98143.66;;;15.93;58.00
55418;BME280;41287;47.554;7.844;2023-03-03T02:07:08;98142.56;;;15.94;58.05
55418;BME280;41287;47.554;7.844;2023-03-03T02:10:05;98137.75;;;15.91;57.81
55418;BME280;41287;47.554;7.844;2023-03-03T02:12:39;98139.06;;;15.93;57.95
55418;BME280;41287;47.554;7.844;2023-03-03T02:18:14;98150.16;;;15.92;57.93
55418;BME280;41287;47.554;7.844;2023-03-03T02:20:45;98142.84;;;15.92;58.00
55418;BME280;41287;47.554;7.844;2023-03-03T02:23:29;98150.16;;;15.92;58.01
55418;BME280;41287;47.554;7.844;2023-03-03T02:28:20;98149.06;;;15.93;58.01
55418;BME280;41287;47.554;7.844;2023-03-03T02:30:48;98144.75;;;15.92;58.04
55418;BME280;41287;47.554;7.844;2023-03-03T02:33:14;98139.34;;;15.92;57.99
55418;BME280;41287;47.554;7.844;2023-03-03T02:35:40;98142.84;;;15.92;57.99
55418;BME280;41287;47.554;7.844;2023-03-03T02:38:35;98141.25;;;15.91;58.01
55418;BME280;41287;47.554;7.844;2023-03-03T02:44:13;98149.06;;;15.93;57.95
55418;BME280;41287;47.554;7.844;2023-03-03T02:46:42;98147.47;;;15.92;58.00
55418;BME280;41287;47.554;7.844;2023-03-03T02:49:11;98151.28;;;15.91;57.92
55418;BME280;41287;47.554;7.844;2023-03-03T02:51:36;98145.56;;;15.92;57.96
55418;BME280;41287;47.554;7.844;2023-03-03T02:54:02;98148.56;;;15.91;58.08
55418;BME280;41287;47.554;7.844;2023-03-03T02:56:30;98147.47;;;15.92;57.93
55418;BME280;41287;47.554;7.844;2023-03-03T02:58:56;98140.97;;;15.93;57.96
55418;BME280;41287;47.554;7.844;2023-03-03T03:01:21;98136.97;;;15.90;57.91
55418;BME280;41287;47.554;7.844;2023-03-03T03:03:49;98143.16;;;15.91;58.01
55418;BME280;41287;47.554;7.844;2023-03-03T03:06:14;98147.47;;;15.92;57.96
55418;BME280;41287;47.554;7.844;2023-03-03T03:08:40;98146.66;;;15.91;58.13
55418;BME280;41287;47.554;7.844;2023-03-03T03:11:05;98140.16;;;15.92;57.95
55418;BME280;41287;47.554;7.844;2023-03-03T03:13:33;98139.34;;;15.92;57.89
55418;BME280;41287;47.554;7.844;2023-03-03T03:15:59;98137.75;;;15.91;58.01
55418;BME280;41287;47.554;7.844;2023-03-03T03:18:25;98136.66;;;15.92;58.01
55418;BME280;41287;47.554;7.844;2023-03-03T03:20:51;98137.75;;;15.91;57.98
55418;BME280;41287;47.554;7.844;2023-03-03T03:23:18;98139.66;;;15.90;58.00
55418;BME280;41287;47.554;7.844;2023-03-03T03:25:46;98136.66;;;15.92;57.71
55418;BME280;41287;47.554;7.844;2023-03-03T03:28:13;98133.16;;;15.91;58.38
55418;BME280;41287;47.554;7.844;2023-03-03T03:30:41;98137.75;;;15.91;57.82
55418;BME280;41287;47.554;7.844;2023-03-03T03:33:10;98135.06;;;15.91;58.23
55418;BME280;41287;47.554;7.844;2023-03-03T03:35:36;98140.47;;;15.91;57.88
55418;BME280;41287;47.554;7.844;2023-03-03T03:38:04;98136.97;;;15.90;57.94
55418;BME280;41287;47.554;7.844;2023-03-03T03:40:30;98135.06;;;15.91;58.01
55418;BME280;41287;47.554;7.844;2023-03-03T03:42:55;98135.06;;;15.91;58.18
55418;BME280;41287;47.554;7.844;2023-03-03T03:45:20;98135.06;;;15.91;57.98
55418;BME280;41287;47.554;7.844;2023-03-03T03:47:48;98140.47;;;15.91;57.96
55418;BME280;41287;47.554;7.844;2023-03-03T03:50:13;98136.19;;;15.90;58.02
55418;BME280;41287;47.554;7.844;2023-03-03T03:52:39;98138.91;;;15.90;58.07
55418;BME280;41287;47.554;7.844;2023-03-03T03:55:04;98138.91;;;15.90;57.96
55418;BME280;41287;47.554;7.844;2023-03-03T03:57:30;98136.97;;;15.90;57.97
55418;BME280;41287;47.554;7.844;2023-03-03T03:59:55;98135.06;;;15.91;58.04
55418;BME280;41287;47.554;7.844;2023-03-03T04:02:21;98139.66;;;15.90;57.89
55418;BME280;41287;47.554;7.844;2023-03-03T04:04:48;98140.47;;;15.91;58.01
55418;BME280;41287;47.554;7.844;2023-03-03T04:07:14;98146.22;;;15.89;57.95
55418;BME280;41287;47.554;7.844;2023-03-03T04:09:39;98143.50;;;15.89;57.96
55418;BME280;41287;47.554;7.844;2023-03-03T04:12:05;98142.72;;;15.89;58.00
55418;BME280;41287;47.554;7.844;2023-03-03T04:14:30;98147.00;;;15.90;58.08
55418;BME280;41287;47.554;7.844;2023-03-03T04:16:56;98146.22;;;15.89;58.03
55418;BME280;41287;47.554;7.844;2023-03-03T04:19:22;98148.91;;;15.89;58.06
55418;BME280;41287;47.554;7.844;2023-03-03T04:21:47;98148.91;;;15.89;58.03
55418;BME280;41287;47.554;7.844;2023-03-03T04:24:12;98162.41;;;15.89;58.01
55418;BME280;41287;47.554;7.844;2023-03-03T04:26:38;98146.22;;;15.89;57.93
55418;BME280;41287;47.554;7.844;2023-03-03T04:29:04;98152.41;;;15.90;58.09
55418;BME280;41287;47.554;7.844;2023-03-03T04:31:29;98154.31;;;15.89;57.94
55418;BME280;41287;47.554;7.844;2023-03-03T04:33:55;98159.72;;;15.89;58.04
55418;BME280;41287;47.554;7.844;2023-03-03T04:36:23;98152.41;;;15.90;58.08
55418;BME280;41287;47.554;7.844;2023-03-03T04:38:49;98152.41;;;15.90;58.02
55418;BME280;41287;47.554;7.844;2023-03-03T04:41:14;98152.41;;;15.90;58.03
55418;BME280;41287;47.554;7.844;2023-03-03T04:43:41;98156.22;;;15.89;57.99
55418;BME280;41287;47.554;7.844;2023-03-03T04:46:10;98158.13;;;15.88;58.07
55418;BME280;41287;47.554;7.844;2023-03-03T04:48:35;98153.50;;;15.89;57.80
55418;BME280;41287;47.554;7.844;2023-03-03T04:51:01;98154.63;;;15.88;58.01
55418;BME280;41287;47.554;7.844;2023-03-03T04:53:28;98144.59;;;15.88;57.99
55418;BME280;41287;47.554;7.844;2023-03-03T04:55:54;98150.00;;;15.88;58.09
55418;BME280;41287;47.554;7.844;2023-03-03T04:58:19;98145.41;;;15.89;57.97
55418;BME280;41287;47.554;7.844;2023-03-03T05:00:46;98151.91;;;15.88;58.03
55418;BME280;41287;47.554;7.844;2023-03-03T05:03:12;98164.31;;;15.89;58.08
55418;BME280;41287;47.554;7.844;2023-03-03T05:05:38;98157.31;;;15.88;58.08
55418;BME280;41287;47.554;7.844;2023-03-03T05:08:04;98158.13;;;15.88;57.97
55418;BME280;41287;47.554;7.844;2023-03-03T05:10:31;98153.81;;;15.87;58.12
55418;BME280;41287;47.554;7.844;2023-03-03T05:12:56;98158.13;;;15.88;57.91
55418;BME280;41287;47.554;7.844;2023-03-03T05:15:22;98158.44;;;15.87;58.04
55418;BME280;41287;47.554;7.844;2023-03-03T05:17:48;98168.13;;;15.88;57.97
55418;BME280;41287;47.554;7.844;2023-03-03T05:20:13;98165.44;;;15.88;58.00
55418;BME280;41287;47.554;7.844;2023-03-03T05:22:38;98164.63;;;15.87;58.07
55418;BME280;41287;47.554;7.844;2023-03-03T05:25:04;98160.03;;;15.88;58.05
55418;BME280;41287;47.554;7.844;2023-03-03T05:27:30;98178.94;;;15.88;57.96
55418;BME280;41287;47.554;7.844;2023-03-03T05:29:55;98161.94;;;15.87;58.02
55418;BME280;41287;47.554;7.844;2023-03-03T05:32:21;98172.72;;;15.87;57.98
55418;BME280;41287;47.554;7.844;2023-03-03T05:34:48;98173.53;;;15.88;58.15
55418;BME280;41287;47.554;7.844;2023-03-03T05:37:15;98174.63;;;15.87;57.95
55418;BME280;41287;47.554;7.844;2023-03-03T05:39:40;98176.53;;;15.86;58.05
55418;BME280;41287;47.554;7.844;2023-03-03T05:42:06;98175.44;;;15.87;58.04
55418;BME280;41287;47.554;7.844;2023-03-03T05:44:33;98173.84;;;15.86;58.10
55418;BME280;41287;47.554;7.844;2023-03-03T05:46:58;98181.94;;;15.86;57.95
55418;BME280;41287;47.554;7.844;2023-03-03T05:49:25;98185.44;;;15.87;58.11
55418;BME280;41287;47.554;7.844;2023-03-03T05:51:52;98181.94;;;15.86;58.06
55418;BME280;41287;47.554;7.844;2023-03-03T05:54:18;98183.06;;;15.85;58.04
55418;BME280;41287;47.554;7.844;2023-03-03T05:56:43;98189.25;;;15.86;57.82
55418;BME280;41287;47.554;7.844;2023-03-03T05:59:08;98195.47;;;15.86;58.03
55418;BME280;41287;47.554;7.844;2023-03-03T06:01:36;98200.06;;;15.86;58.11
55418;BME280;41287;47.554;7.844;2023-03-03T06:04:02;98193.84;;;15.85;58.03
55418;BME280;41287;47.554;7.844;2023-03-03T06:06:27;98199.75;;;15.87;58.08
55418;BME280;41287;47.554;7.844;2023-03-03T06:08:54;98200.84;;;15.86;58.06
55418;BME280;41287;47.554;7.844;2023-03-03T06:11:24;98193.06;;;15.85;58.07
55418;BME280;41287;47.554;7.844;2023-03-03T06:13:49;98199.25;;;15.85;58.03
55418;BME280;41287;47.554;7.844;2023-03-03T06:16:15;98201.16;;;15.85;58.07
55418;BME280;41287;47.554;7.844;2023-03-03T06:18:40;98203.88;;;15.85;58.08
55418;BME280;41287;47.554;7.844;2023-03-03T06:21:05;98201.97;;;15.85;58.07
55418;BME280;41287;47.554;7.844;2023-03-03T06:23:31;98198.47;;;15.85;58.10
55418;BME280;41287;47.554;7.844;2023-03-03T06:25:58;98193.84;;;15.85;57.99
55418;BME280;41287;47.554;7.844;2023-03-03T06:28:25;98198.47;;;15.85;57.99
55418;BME280;41287;47.554;7.844;2023-03-03T06:30:54;98203.06;;;15.84;58.10
55418;BME280;41287;47.554;7.844;2023-03-03T06:33:20;98214.69;;;15.85;58.04
55418;BME280;41287;47.554;7.844;2023-03-03T06:35:53;98218.47;;;15.84;57.99
55418;BME280;41287;47.554;7.844;2023-03-03T06:38:19;98211.16;;;15.84;58.14
55418;BME280;41287;47.554;7.844;2023-03-03T06:40:45;98219.28;;;15.84;58.07
55418;BME280;41287;47.554;7.844;2023-03-03T06:43:11;98223.09;;;15.83;58.04
55418;BME280;41287;47.554;7.844;2023-03-03T06:45:37;98229.28;;;15.84;58.08
55418;BME280;41287;47.554;7.844;2023-03-03T06:48:03;98226.28;;;15.85;57.98
55418;BME280;41287;47.554;7.844;2023-03-03T06:50:28;98236.28;;;15.85;58.14
55418;BME280;41287;47.554;7.844;2023-03-03T06:53:14;98236.94;;;15.82;58.13
55418;BME280;41287;47.554;7.844;2023-03-03T06:55:40;98242.78;;;15.84;58.04
55418;BME280;41287;47.554;7.844;2023-03-03T06:58:14;98244.69;;;15.83;58.05
55418;BME280;41287;47.554;7.844;2023-03-03T07:00:41;98241.22;;;15.83;58.02
55418;BME280;41287;47.554;7.844;2023-03-03T07:03:14;98236.13;;;15.81;57.48
55418;BME280;41287;47.554;7.844;2023-03-03T07:05:39;98238.53;;;15.83;57.27
55418;BME280;41287;47.554;7.844;2023-03-03T07:08:17;98244.69;;;15.83;56.83
55418;BME280;41287;47.554;7.844;2023-03-03T07:10:46;98246.63;;;15.83;56.50
55418;BME280;41287;47.554;7.844;2023-03-03T07:13:26;98258.53;;;15.82;56.13
55418;BME280;41287;47.554;7.844;2023-03-03T07:15:55;98258.22;;;15.83;56.53
55418;BME280;41287;47.554;7.844;2023-03-03T07:21:13;98259.66;;;15.80;56.13
55418;BME280;41287;47.554;7.844;2023-03-03T07:23:40;98263.94;;;15.82;56.23
55418;BME280;41287;47.554;7.844;2023-03-03T07:26:20;98261.56;;;15.80;56.31
55418;BME280;41287;47.554;7.844;2023-03-03T07:28:54;98268.06;;;15.79;56.11
55418;BME280;41287;47.554;7.844;2023-03-03T07:31:27;98262.94;;;15.77;56.13
55418;BME280;41287;47.554;7.844;2023-03-03T07:33:54;98264.25;;;15.80;56.21
55418;BME280;41287;47.554;7.844;2023-03-03T07:36:30;98264.56;;;15.78;56.20
55418;BME280;41287;47.554;7.844;2023-03-03T07:39:00;98273.47;;;15.79;56.37
55418;BME280;41287;47.554;7.844;2023-03-03T07:41:29;98271.06;;;15.77;56.43
55418;BME280;41287;47.554;7.844;2023-03-03T07:44:16;98276.47;;;15.77;56.58
55418;BME280;41287;47.554;7.844;2023-03-03T07:46:46;98281.88;;;15.77;56.53
55418;BME280;41287;47.554;7.844;2023-03-03T07:49:23;98289.50;;;15.75;56.63
55418;BME280;41287;47.554;7.844;2023-03-03T07:51:56;98282.97;;;15.76;56.60
55418;BME280;41287;47.554;7.844;2023-03-03T07:54:36;98293.00;;;15.76;56.66
55418;BME280;41287;47.554;7.844;2023-03-03T07:57:23;98292.66;;;15.77;56.58
55418;BME280;41287;47.554;7.844;2023-03-03T08:02:32;98296.00;;;15.74;56.66
55418;BME280;41287;47.554;7.844;2023-03-03T08:04:58;98294.91;;;15.75;56.78
55418;BME280;41287;47.554;7.844;2023-03-03T08:07:24;98295.72;;;15.76;56.79
55418;BME280;41287;47.554;7.844;2023-03-03T08:10:00;98289.50;;;15.75;56.94
55418;BME280;41287;47.554;7.844;2023-03-03T08:12:42;98293.31;;;15.74;56.83
55418;BME280;41287;47.554;7.844;2023-03-03T08:15:20;98290.59;;;15.74;56.85
55418;BME280;41287;47.554;7.844;2023-03-03T08:17:48;98294.09;;;15.75;56.86
55418;BME280;41287;47.554;7.844;2023-03-03T08:20:41;98294.41;;;15.73;56.90
55418;BME280;41287;47.554;7.844;2023-03-03T08:23:08;98289.50;;;15.75;57.03
55418;BME280;41287;47.554;7.844;2023-03-03T08:25:34;98294.09;;;15.75;56.86
55418;BME280;41287;47.554;7.844;2023-03-03T08:27:59;98301.41;;;15.74;56.99
55418;BME280;41287;47.554;7.844;2023-03-03T08:30:26;98298.72;;;15.74;56.97
55418;BME280;41287;47.554;7.844;2023-03-03T08:32:56;98296.00;;;15.74;56.84
55418;BME280;41287;47.554;7.844;2023-03-03T08:35:22;98287.09;;;15.74;56.89
55418;BME280;41287;47.554;7.844;2023-03-03T08:37:47;98292.50;;;15.74;56.99
55418;BME280;41287;47.554;7.844;2023-03-03T08:40:13;98293.31;;;15.74;57.08
55418;BME280;41287;47.554;7.844;2023-03-03T08:42:38;98295.22;;;15.74;56.89
55418;BME280;41287;47.554;7.844;2023-03-03T08:45:03;98284.41;;;15.74;57.09
55418;BME280;41287;47.554;7.844;2023-03-03T08:47:29;98288.69;;;15.75;57.02
55418;BME280;41287;47.554;7.844;2023-03-03T08:49:55;98289.81;;;15.74;57.00
55418;BME280;41287;47.554;7.844;2023-03-03T08:52:20;98289.00;;;15.73;57.00
55418;BME280;41287;47.554;7.844;2023-03-03T08:54:45;98290.59;;;15.74;57.10
55418;BME280;41287;47.554;7.844;2023-03-03T08:57:13;98295.22;;;15.74;56.99
55418;BME280;41287;47.554;7.844;2023-03-03T08:59:39;98299.81;;;15.73;57.04
55418;BME280;41287;47.554;7.844;2023-03-03T09:02:05;98297.91;;;15.74;57.09
55418;BME280;41287;47.554;7.844;2023-03-03T09:04:31;98291.72;;;15.73;57.12
55418;BME280;41287;47.554;7.844;2023-03-03T09:06:58;98294.41;;;15.73;57.08
55418;BME280;41287;47.554;7.844;2023-03-03T09:09:23;98284.41;;;15.74;57.06
55418;BME280;41287;47.554;7.844;2023-03-03T09:11:48;98297.91;;;15.74;57.11
55418;BME280;41287;47.554;7.844;2023-03-03T09:14:16;98289.81;;;15.74;57.12
55418;BME280;41287;47.554;7.844;2023-03-03T09:16:53;98297.41;;;15.72;57.14
55418;BME280;41287;47.554;7.844;2023-03-03T09:19:37;98299.31;;;15.71;56.95
55418;BME280;41287;47.554;7.844;2023-03-03T09:22:10;98310.13;;;15.71;56.86
55418;BME280;41287;47.554;7.844;2023-03-03T09:24:42;98311.41;;;15.74;56.55
55418;BME280;41287;47.554;7.844;2023-03-03T09:27:37;98306.63;;;15.71;55.23
55418;BME280;41287;47.554;7.844;2023-03-03T09:30:34;98300.41;;;15.70;55.47
55418;BME280;41287;47.554;7.844;2023-03-03T09:33:01;98295.81;;;15.71;55.43
55418;BME280;41287;47.554;7.844;2023-03-03T09:35:35;98304.22;;;15.69;55.23
55418;BME280;41287;47.554;7.844;2023-03-03T09:46:59;98300.75;;;15.69;55.11
55418;BME280;41287;47.554;7.844;2023-03-03T09:49:42;98298.03;;;15.69;55.33
55418;BME280;41287;47.554;7.844;2023-03-03T09:52:17;98299.94;;;15.68;55.36
55418;BME280;41287;47.554;7.844;2023-03-03T09:55:02;98306.44;;;15.67;55.35
55418;BME280;41287;47.554;7.844;2023-03-03T10:03:19;98307.56;;;15.66;55.73
55418;BME280;41287;47.554;7.844;2023-03-03T10:05:53;98309.16;;;15.67;55.63
55418;BME280;41287;47.554;7.844;2023-03-03T10:08:31;98308.34;;;15.67;55.70
55418;BME280;41287;47.554;7.844;2023-03-03T10:11:18;98310.25;;;15.66;55.88
55418;BME280;41287;47.554;7.844;2023-03-03T10:16:48;98304.84;;;15.66;55.90
55418;BME280;41287;47.554;7.844;2023-03-03T10:19:37;98314.06;;;15.65;55.96
55418;BME280;41287;47.554;7.844;2023-03-03T10:25:06;98312.47;;;15.64;56.05
55418;BME280;41287;47.554;7.844;2023-03-03T10:28:01;98310.06;;;15.63;56.13
55418;BME280;41287;47.554;7.844;2023-03-03T10:30:38;98312.16;;;15.66;56.18
55418;BME280;41287;47.554;7.844;2023-03-03T10:33:34;98311.66;;;15.64;56.13
55418;BME280;41287;47.554;7.844;2023-03-03T10:55:36;98318.16;;;15.63;56.44
55418;BME280;41287;47.554;7.844;2023-03-03T11:06:21;98303.88;;;15.62;56.49
55418;BME280;41287;47.554;7.844;2023-03-03T11:09:07;98301.66;;;15.64;56.47
55418;BME280;41287;47.554;7.844;2023-03-03T11:17:23;98301.66;;;15.64;56.30
55418;BME280;41287;47.554;7.844;2023-03-03T11:20:07;98303.56;;;15.64;56.42
55418;BME280;41287;47.554;7.844;2023-03-03T11:22:45;98299.25;;;15.63;56.23
55418;BME280;41287;47.554;7.844;2023-03-03T11:28:19;98291.16;;;15.63;56.47
55418;BME280;41287;47.554;7.844;2023-03-03T11:33:33;98281.47;;;15.62;56.52
55418;BME280;41287;47.554;7.844;2023-03-03T11:36:10;98278.44;;;15.63;56.60
55418;BME280;41287;47.554;7.844;2023-03-03T11:38:45;98279.56;;;15.62;56.49
55418;BME280;41287;47.554;7.844;2023-03-03T11:41:22;98282.28;;;15.62;56.50
55418;BME280;41287;47.554;7.844;2023-03-03T11:44:44;98269.88;;;15.61;56.53
55418;BME280;41287;47.554;7.844;2023-03-03T11:46:58;98267.97;;;15.62;56.54
55418;BME280;41287;47.554;7.844;2023-03-03T11:52:29;98268.78;;;15.62;56.55
55418;BME280;41287;47.554;7.844;2023-03-03T11:55:04;98263.38;;;15.62;56.75
55418;BME280;41287;47.554;7.844;2023-03-03T11:57:38;98262.56;;;15.62;56.65
55418;BME280;41287;47.554;7.844;2023-03-03T12:00:18;98259.88;;;15.62;56.62
55418;BME280;41287;47.554;7.844;2023-03-03T12:08:01;98250.97;;;15.61;56.81
55418;BME280;41287;47.554;7.844;2023-03-03T12:10:41;98250.16;;;15.61;56.54
55418;BME280;41287;47.554;7.844;2023-03-03T12:13:19;98246.38;;;15.62;56.80
55418;BME280;41287;47.554;7.844;2023-03-03T12:15:55;98245.56;;;15.61;56.79
55418;BME280;41287;47.554;7.844;2023-03-03T12:18:52;98230.47;;;15.60;56.67
55418;BME280;41287;47.554;7.844;2023-03-03T12:21:51;98233.97;;;15.61;56.83
55418;BME280;41287;47.554;7.844;2023-03-03T12:24:41;98222.38;;;15.60;56.80
55418;BME280;41287;47.554;7.844;2023-03-03T12:30:15;98225.06;;;15.60;56.66
55418;BME280;41287;47.554;7.844;2023-03-03T12:38:08;98223.16;;;15.61;56.86
55418;BME280;41287;47.554;7.844;2023-03-03T12:40:43;98218.06;;;15.59;56.75
55418;BME280;41287;47.554;7.844;2023-03-03T12:46:22;98207.25;;;15.59;56.74
55418;BME280;41287;47.554;7.844;2023-03-03T12:48:49;98206.16;;;15.60;56.66
55418;BME280;41287;47.554;7.844;2023-03-03T13:02:19;98198.34;;;15.59;57.20
55418;BME280;41287;47.554;7.844;2023-03-03T13:04:55;98191.34;;;15.58;56.81
55418;BME280;41287;47.554;7.844;2023-03-03T13:12:55;98198.06;;;15.60;56.84
55418;BME280;41287;47.554;7.844;2023-03-03T13:19:05;98188.34;;;15.59;56.74
55418;BME280;41287;47.554;7.844;2023-03-03T13:21:23;98191.34;;;15.58;56.88
55418;BME280;41287;47.554;7.844;2023-03-03T13:26:38;98195.66;;;15.59;56.86
55418;BME280;41287;47.554;7.844;2023-03-03T13:32:22;98193.25;;;15.57;57.01
55418;BME280;41287;47.554;7.844;2023-03-03T13:35:17;98189.47;;;15.58;56.91
55418;BME280;41287;47.554;7.844;2023-03-03T13:37:46;98187.56;;;15.59;56.95
55418;BME280;41287;47.554;7.844;2023-03-03T13:40:18;98184.84;;;15.59;56.98
55418;BME280;41287;47.554;7.844;2023-03-03T13:51:01;98177.84;;;15.58;56.98
55418;BME280;41287;47.554;7.844;2023-03-03T13:59:11;98184.06;;;15.58;56.91
55418;BME280;41287;47.554;7.844;2023-03-03T14:02:06;98179.75;;;15.57;57.10
55418;BME280;41287;47.554;7.844;2023-03-03T14:08:19;98179.75;;;15.57;57.05
55418;BME280;41287;47.554;7.844;2023-03-03T14:19:32;98175.94;;;15.58;57.14
55418;BME280;41287;47.554;7.844;2023-03-03T14:24:59;98178.16;;;15.56;57.11
55418;BME280;41287;47.554;7.844;2023-03-03T14:27:34;98181.66;;;15.57;57.10
55418;BME280;41287;47.554;7.844;2023-03-03T14:30:37;98180.84;;;15.56;57.05
55418;BME280;41287;47.554;7.844;2023-03-03T14:38:15;98165.78;;;15.55;57.06
55418;BME280;41287;47.554;7.844;2023-03-03T14:40:43;98169.75;;;15.58;57.07
55418;BME280;41287;47.554;7.844;2023-03-03T14:43:24;98170.84;;;15.57;57.07
55418;BME280;41287;47.554;7.844;2023-03-03T14:45:52;98167.84;;;15.58;57.09
55418;BME280;41287;47.554;7.844;2023-03-03T14:48:23;98177.06;;;15.57;57.10
55418;BME280;41287;47.554;7.844;2023-03-03T14:51:16;98175.47;;;15.56;57.13
55418;BME280;41287;47.554;7.844;2023-03-03T14:53:49;98169.75;;;15.58;57.11
55418;BME280;41287;47.554;7.844;2023-03-03T14:56:24;98166.25;;;15.57;57.12
55418;BME280;41287;47.554;7.844;2023-03-03T14:58:53;98167.84;;;15.58;57.04
55418;BME280;41287;47.554;7.844;2023-03-03T15:01:33;98164.66;;;15.56;57.23
55418;BME280;41287;47.554;7.844;2023-03-03T15:04:02;98161.66;;;15.58;57.21
55418;BME280;41287;47.554;7.844;2023-03-03T15:06:32;98165.44;;;15.57;57.04
55418;BME280;41287;47.554;7.844;2023-03-03T15:11:51;98162.44;;;15.58;57.11
55418;BME280;41287;47.554;7.844;2023-03-03T15:14:20;98167.06;;;15.58;56.87
55418;BME280;41287;47.554;7.844;2023-03-03T15:16:47;98161.66;;;15.58;57.22
55418;BME280;41287;47.554;7.844;2023-03-03T15:21:44;98170.56;;;15.58;57.03
55418;BME280;41287;47.554;7.844;2023-03-03T15:27:03;98175.16;;;15.58;57.22
55418;BME280;41287;47.554;7.844;2023-03-03T15:29:40;98171.66;;;15.57;57.00
55418;BME280;41287;47.554;7.844;2023-03-03T15:34:39;98176.75;;;15.59;57.18
55418;BME280;41287;47.554;7.844;2023-03-03T15:37:21;98175.94;;;15.58;57.05
55418;BME280;41287;47.554;7.844;2023-03-03T15:40:04;98175.94;;;15.58;57.10
55418;BME280;41287;47.554;7.844;2023-03-03T15:42:58;98183.25;;;15.58;57.21
55418;BME280;41287;47.554;7.844;2023-03-03T15:45:31;98184.06;;;15.58;57.10
55418;BME280;41287;47.554;7.844;2023-03-03T15:51:05;98185.97;;;15.58;57.19
55418;BME280;41287;47.554;7.844;2023-03-03T15:59:08;98175.16;;;15.58;57.14
55418;BME280;41287;47.554;7.844;2023-03-03T16:04:38;98179.44;;;15.59;57.14
55418;BME280;41287;47.554;7.844;2023-03-03T16:07:29;98178.97;;;15.57;57.23
55418;BME280;41287;47.554;7.844;2023-03-03T16:10:10;98187.06;;;15.57;57.18
55418;BME280;41287;47.554;7.844;2023-03-03T16:15:22;98188.66;;;15.58;57.27
55418;BME280;41287;47.554;7.844;2023-03-03T16:20:34;98191.34;;;15.58;56.87
55418;BME280;41287;47.554;7.844;2023-03-03T16:23:21;98204.06;;;15.57;57.19
55418;BME280;41287;47.554;7.844;2023-03-03T16:26:11;98194.06;;;15.58;57.20
55418;BME280;41287;47.554;7.844;2023-03-03T16:31:52;98204.06;;;15.57;57.36